Terminal Aerodrome Forecast
Issued by NWS

Home | Current Version | Previous Version | Text Only | Print | Product List | Glossary On
Versions: 1 2 3 4 5 6 7 8 9 10 11 12 13 14 15 16 17
000
FTUS42 KRAH 231328 AAA
TAFRWI
TAF AMD
KRWI 231328Z 2313/2412 19016G26KT 6SM -SHRA FEW008 BKN015 OVC250
      TEMPO 2313/2314 21025G35KT 1 1/2SM +SHRA BKN007 OVC012
     FM231700 23019G30KT P6SM SCT018 SCT050
      TEMPO 2317/2318 24024G34KT BKN015
     FM232100 26014G21KT P6SM SKC
     FM232300 30007KT P6SM SKC=

USA.gov is the U.S. government's official web portal to all federal, state and local government web resources and services.